createdAt,value
2019-02-10T03:08:13.772Z,-2.9
2019-02-10T03:09:03.222Z,-2.9
2019-02-10T03:09:53.782Z,-2.9
2019-02-10T03:10:43.841Z,-3.1
2019-02-10T03:11:33.608Z,-3.3
2019-02-10T03:12:23.987Z,-3.4
2019-02-10T03:13:13.994Z,-3.4
2019-02-10T03:14:03.803Z,-3.4
2019-02-10T03:14:54.131Z,-3.3
2019-02-10T03:15:44.256Z,-3.3
2019-02-10T03:16:34.230Z,-3.3
2019-02-10T03:17:24.012Z,-3.4
2019-02-10T03:18:14.532Z,-3.4
2019-02-10T03:19:04.396Z,-3.3
2019-02-10T03:19:54.212Z,-3.3
2019-02-10T03:20:44.507Z,-3.3
2019-02-10T03:21:34.322Z,-3.3
2019-02-10T03:22:24.663Z,-3.2
2019-02-10T03:23:14.689Z,-3.1
2019-02-10T03:24:04.781Z,-3.2
2019-02-10T03:24:54.583Z,-3.2
2019-02-10T03:25:44.625Z,-3.2
2019-02-10T03:26:34.943Z,-3.2
2019-02-10T03:27:24.719Z,-3.2
2019-02-10T03:28:15.026Z,-3.1
2019-02-10T03:29:05.090Z,-3.1
2019-02-10T03:29:55.196Z,-3.2
2019-02-10T03:30:45.248Z,-3.3
2019-02-10T03:31:35.330Z,-3.4
2019-02-10T03:32:25.095Z,-3.4
2019-02-10T03:33:15.529Z,-3.4
2019-02-10T03:34:05.569Z,-3.4
2019-02-10T03:34:55.513Z,-3.4
2019-02-10T03:35:44.988Z,-3.4
2019-02-10T03:36:35.341Z,-3.4
2019-02-10T03:37:29.874Z,-3.4
2019-02-10T03:38:15.523Z,-3.3
2019-02-10T03:39:05.493Z,-3.3
2019-02-10T03:39:55.836Z,-3.4
2019-02-10T03:40:45.608Z,-3.3
2019-02-10T03:41:35.953Z,-3.3
2019-02-10T03:42:26.040Z,-3.3
2019-02-10T03:43:15.809Z,-3.3
2019-02-10T03:44:05.848Z,-3.3
2019-02-10T03:44:55.913Z,-3.4
2019-02-10T03:45:46.246Z,-3.4
2019-02-10T03:46:36.045Z,-3.4
2019-02-10T03:47:26.451Z,-3.5
2019-02-10T03:48:16.427Z,-3.6
2019-02-10T03:49:05.918Z,-3.7
2019-02-10T03:49:56.558Z,-3.8
2019-02-10T03:50:46.308Z,-3.9
2019-02-10T03:51:36.668Z,-3.9
2019-02-10T03:52:26.161Z,-3.9
2019-02-10T03:53:16.760Z,-3.9
2019-02-10T03:54:06.272Z,-3.8
2019-02-10T03:54:56.570Z,-3.9
2019-02-10T03:55:47.022Z,-3.9
2019-02-10T03:56:36.718Z,-3.9
2019-02-10T03:57:27.041Z,-3.9
2019-02-10T03:58:17.095Z,-3.9
2019-02-10T03:59:06.924Z,-4
2019-02-10T03:59:57.193Z,-4.1
2019-02-10T04:00:46.999Z,-4.1
2019-02-10T04:01:37.313Z,-4.1
2019-02-10T04:02:26.854Z,-4.1
2019-02-10T04:03:17.169Z,-4.1
2019-02-10T04:04:07.518Z,-4.2
2019-02-10T04:04:57.576Z,-4.2
2019-02-10T04:05:47.606Z,-4.3
2019-02-10T04:06:37.391Z,-4.3
2019-02-10T04:07:37.156Z,-4.3
2019-02-10T04:08:17.764Z,-4.3
2019-02-10T04:09:07.867Z,-4.4
2019-02-10T04:09:57.609Z,-4.4
2019-02-10T04:10:48.036Z,-4.4
2019-02-10T04:11:37.456Z,-4.3
2019-02-10T04:12:28.083Z,-4.3
2019-02-10T04:13:18.114Z,-4.3
2019-02-10T04:14:08.221Z,-4.3
2019-02-10T04:14:57.708Z,-4.3
2019-02-10T04:15:47.739Z,-4.2
2019-02-10T04:16:38.390Z,-4.2
2019-02-10T04:17:28.419Z,-4.1
2019-02-10T04:18:18.494Z,-4.2
2019-02-10T04:19:08.521Z,-4.1
2019-02-10T04:19:58.363Z,-4.1
2019-02-10T04:20:48.358Z,-4.1
2019-02-10T04:21:38.708Z,-4.1
2019-02-10T04:22:28.824Z,-4.2
2019-02-10T04:23:18.555Z,-4.3
2019-02-10T04:24:08.875Z,-4.2
2019-02-10T04:24:58.935Z,-4.2
2019-02-10T04:25:48.756Z,-4.3
2019-02-10T04:26:38.755Z,-4.3
2019-02-10T04:27:29.110Z,-4.3
2019-02-10T04:28:18.903Z,-4.3
2019-02-10T04:29:09.206Z,-4.3
2019-02-10T04:29:59.260Z,-4.3
2019-02-10T04:30:49.322Z,-4.3
2019-02-10T04:31:39.390Z,-4.2
2019-02-10T04:32:29.457Z,-4.3
2019-02-10T04:33:19.507Z,-4.3
2019-02-10T04:34:09.672Z,-4.3
2019-02-10T04:34:59.074Z,-4.3
2019-02-10T04:35:49.400Z,-4.3
2019-02-10T04:36:39.446Z,-4.3
2019-02-10T04:37:29.502Z,-4.3
2019-02-10T04:38:19.562Z,-4.3
2019-02-10T04:39:09.652Z,-4.3
2019-02-10T04:39:59.969Z,-4.2
2019-02-10T04:40:49.743Z,-4.2
2019-02-10T04:41:39.584Z,-4.3
2019-02-10T04:42:29.867Z,-4.3
2019-02-10T04:43:19.899Z,-4.4
2019-02-10T04:44:09.699Z,-4.4
2019-02-10T04:45:00.384Z,-4.4
2019-02-10T04:45:50.087Z,-4.3
2019-02-10T04:46:39.576Z,-4.3
2019-02-10T04:47:30.469Z,-4.3
2019-02-10T04:48:20.016Z,-4.3
2019-02-10T04:49:10.329Z,-4.3
2019-02-10T04:50:00.400Z,-4.3
2019-02-10T04:50:50.438Z,-4.2
2019-02-10T04:51:40.776Z,-4.2
2019-02-10T04:52:30.813Z,-4.3
2019-02-10T04:53:20.877Z,-4.3
2019-02-10T04:54:10.674Z,-4.3
2019-02-10T04:55:00.581Z,-4.3
2019-02-10T04:55:51.066Z,-4.3
2019-02-10T04:56:40.831Z,-4.3
2019-02-10T04:57:30.917Z,-4.3
2019-02-10T04:58:20.968Z,-4.3
2019-02-10T04:59:11.013Z,-4.3
2019-02-10T05:00:01.315Z,-4.3
2019-02-10T05:00:51.378Z,-4.3
2019-02-10T05:01:41.463Z,-4.3
2019-02-10T05:02:31.277Z,-4.3
2019-02-10T05:03:20.999Z,-4.4
2019-02-10T05:04:11.065Z,-4.4
2019-02-10T05:05:01.739Z,-4.5
2019-02-10T05:05:51.753Z,-4.4
2019-02-10T05:06:41.594Z,-4.5
2019-02-10T05:07:31.576Z,-4.6
2019-02-10T05:08:21.893Z,-4.6
2019-02-10T05:09:11.680Z,-4.6
2019-02-10T05:10:01.900Z,-4.6
2019-02-10T05:10:51.830Z,-4.6
2019-02-10T05:11:42.132Z,-4.6
2019-02-10T05:12:31.912Z,-4.6
2019-02-10T05:13:21.995Z,-4.6
2019-02-10T05:14:11.760Z,-4.7
2019-02-10T05:15:02.362Z,-4.6
2019-02-10T05:15:52.198Z,-4.6
2019-02-10T05:16:42.487Z,-4.6
2019-02-10T05:17:32.552Z,-4.6
2019-02-10T05:18:22.587Z,-4.6
2019-02-10T05:19:12.405Z,-4.6
2019-02-10T05:20:02.829Z,-4.6
2019-02-10T05:20:52.212Z,-4.6
2019-02-10T05:21:42.266Z,-4.6
2019-02-10T05:22:32.612Z,-4.6
2019-02-10T05:23:22.390Z,-4.6
2019-02-10T05:24:13.103Z,-4.6
2019-02-10T05:25:03.064Z,-4.6
2019-02-10T05:25:53.129Z,-4.6
2019-02-10T05:26:42.592Z,-4.6
2019-02-10T05:27:33.256Z,-4.6
2019-02-10T05:28:23.297Z,-4.6
2019-02-10T05:29:13.059Z,-4.6
2019-02-10T05:30:03.214Z,-4.6
2019-02-10T05:30:53.215Z,-4.6
2019-02-10T05:31:43.254Z,-4.4
2019-02-10T05:32:33.565Z,-4.4
2019-02-10T05:33:23.704Z,-4.4
2019-02-10T05:34:13.688Z,-4.4
2019-02-10T05:35:03.827Z,-4.4
2019-02-10T05:35:53.507Z,-4.4
2019-02-10T05:36:43.348Z,-4.4
2019-02-10T05:37:33.926Z,-4.4
2019-02-10T05:38:23.949Z,-4.3
2019-02-10T05:39:14.031Z,-4.3
2019-02-10T05:40:03.830Z,-4.3
2019-02-10T05:40:54.139Z,-4.4
2019-02-10T05:41:44.229Z,-4.4
2019-02-10T05:42:34.308Z,-4.3
2019-02-10T05:43:24.332Z,-4.3
2019-02-10T05:44:14.417Z,-4.3
2019-02-10T05:45:04.428Z,-4.3
2019-02-10T05:45:54.522Z,-4.3
2019-02-10T05:46:44.286Z,-4.3
2019-02-10T05:47:34.371Z,-4.3
2019-02-10T05:48:24.374Z,-4.2
2019-02-10T05:49:14.445Z,-4.1
2019-02-10T05:50:04.485Z,-4.1
2019-02-10T05:50:54.818Z,-4.2
2019-02-10T05:51:44.659Z,-4.2
2019-02-10T05:52:34.965Z,-4.2
2019-02-10T05:53:24.718Z,-4.2
2019-02-10T05:54:14.758Z,-4.1
2019-02-10T05:55:04.902Z,-4
2019-02-10T05:55:55.163Z,-4.1
2019-02-10T05:56:45.237Z,-4
2019-02-10T05:57:35.280Z,-3.9
2019-02-10T05:58:24.788Z,-3.9
2019-02-10T05:59:15.121Z,-3.9
2019-02-10T06:00:05.449Z,-3.8
2019-02-10T06:01:45.569Z,-3.7
2019-02-10T06:02:35.610Z,-3.6
2019-02-10T06:03:25.454Z,-3.5
2019-02-10T06:04:15.762Z,-3.5
2019-02-10T06:06:13.488Z,-3.5
2019-02-10T06:07:03.636Z,-3.4
2019-02-10T06:07:53.850Z,-3.4
2019-02-10T06:08:43.720Z,-3.3
2019-02-10T06:09:33.761Z,-3.3
2019-02-10T06:10:23.504Z,-3.3
2019-02-10T06:11:13.817Z,-3.3
2019-02-10T06:12:03.630Z,-3.2
2019-02-10T06:12:53.669Z,-3.1
2019-02-10T06:13:43.984Z,-3.1
2019-02-10T06:14:34.067Z,-3
2019-02-10T06:15:24.110Z,-3
2019-02-10T06:16:14.144Z,-2.9
2019-02-10T06:17:03.951Z,-2.8
2019-02-10T06:17:53.990Z,-2.7
2019-02-10T06:18:44.336Z,-2.7
2019-02-10T06:19:34.568Z,-2.7
2019-02-10T06:20:24.443Z,-2.6
2019-02-10T06:21:15.133Z,-2.4
2019-02-10T06:22:18.934Z,-2.4
2019-02-10T06:22:54.794Z,-2.3
2019-02-10T06:23:44.403Z,-2.1
2019-02-10T06:24:34.678Z,-2.1
2019-02-10T06:25:24.309Z,-2.1
2019-02-10T06:26:14.601Z,-2.1
2019-02-10T06:27:04.366Z,-2.1
2019-02-10T06:27:54.969Z,-2.1
2019-02-10T06:28:44.193Z,-2
2019-02-10T06:29:34.799Z,-2
2019-02-10T06:30:24.863Z,-1.9
2019-02-10T06:31:14.643Z,-1.9
2019-02-10T06:32:04.995Z,-1.9
2019-02-10T06:32:55.025Z,-1.8
2019-02-10T06:33:45.353Z,-1.8
2019-02-10T06:34:34.857Z,-1.7
2019-02-10T06:35:25.003Z,-1.7
2019-02-10T06:36:17.326Z,-1.6
2019-02-10T06:37:05.062Z,-1.5
2019-02-10T06:37:54.824Z,-1.4
2019-02-10T06:38:45.451Z,-1.4
2019-02-10T06:39:35.780Z,-1.3
2019-02-10T06:40:25.267Z,-1.4
2019-02-10T06:41:15.872Z,-1.4
2019-02-10T06:42:05.374Z,-1.3
2019-02-10T06:42:55.712Z,-1.3
2019-02-10T06:43:46.029Z,-1.3
2019-02-10T06:44:35.540Z,-1.2
2019-02-10T06:45:26.150Z,-1.1
2019-02-10T06:48:45.865Z,-0.8
2019-02-10T06:49:36.447Z,-0.8
2019-02-10T06:50:26.499Z,-0.7
2019-02-10T06:51:16.279Z,-0.8
2019-02-10T06:52:06.602Z,-0.8
2019-02-10T06:52:56.386Z,-0.8
2019-02-10T06:53:46.732Z,-0.6
2019-02-10T06:54:36.524Z,-0.4
2019-02-10T06:55:26.294Z,-0.4
2019-02-10T06:56:16.907Z,-0.3
2019-02-10T06:57:06.951Z,-0.1
2019-02-10T06:57:56.454Z,-0.1
2019-02-10T06:58:46.320Z,0.1
2019-02-10T06:59:36.848Z,0.1
2019-02-10T07:00:27.191Z,0.1
2019-02-10T07:01:17.236Z,0.2
2019-02-10T07:02:07.011Z,0.3
2019-02-10T07:02:57.363Z,0.4
2019-02-10T07:03:46.871Z,0.3
2019-02-10T07:06:12.866Z,0.2
2019-02-10T07:07:03.499Z,0.1
2019-02-10T07:07:53.553Z,0.2
2019-02-10T07:08:43.640Z,0.3
2019-02-10T07:09:33.690Z,0.4
2019-02-10T07:10:23.439Z,0.2
2019-02-10T07:11:12.937Z,0.6
2019-02-10T07:12:03.548Z,0.6
2019-02-10T07:12:53.885Z,0.6
2019-02-10T07:13:43.937Z,0.8
2019-02-10T07:14:34.008Z,0.8
2019-02-10T07:15:23.780Z,0.8
2019-02-10T07:16:13.561Z,0.6
2019-02-10T07:17:03.900Z,0.8
2019-02-10T07:17:54.233Z,0.9
2019-02-10T07:18:44.272Z,1.1
2019-02-10T07:19:34.385Z,1.2
2019-02-10T07:20:24.392Z,1.4
2019-02-10T07:21:14.452Z,1.3
2019-02-10T07:22:03.980Z,1.1
2019-02-10T07:22:54.584Z,1.1
2019-02-10T07:23:44.637Z,1.2
2019-02-10T07:24:34.172Z,1.1
2019-02-10T07:25:24.747Z,1.3
2019-02-10T07:26:14.271Z,1.4
2019-02-10T07:27:04.594Z,1.7
2019-02-10T07:27:54.640Z,1.8
2019-02-10T07:28:44.702Z,1.8
2019-02-10T07:29:34.497Z,2
2019-02-10T07:30:25.083Z,2.1
2019-02-10T07:31:14.879Z,2.1
2019-02-10T07:32:04.669Z,2
2019-02-10T07:32:55.266Z,2.1
2019-02-10T07:33:45.336Z,2.3
2019-02-10T07:34:35.112Z,2.3
2019-02-10T07:35:25.554Z,2.3
2019-02-10T07:36:14.949Z,2
2019-02-10T07:37:05.589Z,2
2019-02-10T07:37:55.630Z,1.8
2019-02-10T07:38:45.389Z,1.9
2019-02-10T07:39:35.751Z,2.3
2019-02-10T07:40:25.241Z,2.6
2019-02-10T07:41:15.331Z,2.6
2019-02-10T07:42:05.906Z,2.3
2019-02-10T07:42:55.436Z,2.3
2019-02-10T07:43:45.563Z,2.6
2019-02-10T07:44:36.076Z,2.7
2019-02-10T07:45:25.901Z,2.9
2019-02-10T07:46:15.931Z,3.1
2019-02-10T07:47:05.701Z,3.2
2019-02-10T07:47:56.853Z,3.3
2019-02-10T07:48:45.901Z,3.1
2019-02-10T07:49:35.958Z,3.3
2019-02-10T07:50:25.738Z,3.6
2019-02-10T07:51:16.276Z,3.6
2019-02-10T07:52:05.835Z,3.4
2019-02-10T07:52:55.908Z,3.3
2019-02-10T07:53:46.233Z,3.4
2019-02-10T07:54:44.009Z,3.4
2019-02-10T07:55:26.078Z,3.8
2019-02-10T07:56:16.419Z,4.1
2019-02-10T07:57:06.464Z,3.7
2019-02-10T07:57:56.240Z,3.8
2019-02-10T07:58:46.307Z,4.3
2019-02-10T07:59:36.623Z,4.1
2019-02-10T08:00:26.717Z,3.6
2019-02-10T08:01:16.764Z,3.3
2019-02-10T08:02:07.030Z,3.3
2019-02-10T08:02:56.591Z,3.8
2019-02-10T08:03:46.930Z,3.7
2019-02-10T08:04:36.989Z,3.6
2019-02-10T08:05:27.032Z,3.6
2019-02-10T08:06:17.102Z,3.8
2019-02-10T08:07:07.374Z,4.2
2019-02-10T08:07:57.207Z,4.3
2019-02-10T08:08:49.407Z,4.2
2019-02-10T08:09:37.007Z,4.3
2019-02-10T08:10:27.898Z,4.5
2019-02-10T08:11:17.371Z,4.9
2019-02-10T08:12:07.984Z,4.8
2019-02-10T08:12:57.783Z,4.6
2019-02-10T08:13:47.551Z,4.7
2019-02-10T08:14:37.881Z,4.7
2019-02-10T08:15:27.727Z,4.8
2019-02-10T08:16:18.011Z,4.9
2019-02-10T08:17:08.336Z,4.8
2019-02-10T08:17:57.549Z,4.9
2019-02-10T08:18:48.439Z,4.7
2019-02-10T08:19:38.501Z,4.4
2019-02-10T08:20:28.281Z,4.3
2019-02-10T08:21:18.836Z,4.6
2019-02-10T08:22:08.681Z,4.9
2019-02-10T08:22:57.899Z,4.9
2019-02-10T08:23:48.786Z,5.1
2019-02-10T08:24:38.573Z,4.8
2019-02-10T08:25:28.814Z,4.6
2019-02-10T08:26:18.971Z,4.6
2019-02-10T08:27:09.024Z,4.4
2019-02-10T08:27:58.863Z,4.9
2019-02-10T08:28:48.395Z,5.2
2019-02-10T08:29:38.978Z,5.4
2019-02-10T08:30:28.980Z,5.9
2019-02-10T08:31:19.303Z,5.5
2019-02-10T08:32:09.091Z,5.4
2019-02-10T08:32:59.153Z,5.8
2019-02-10T08:33:49.215Z,5.9
2019-02-10T08:34:38.505Z,5.8
2019-02-10T08:35:30.367Z,5.8
2019-02-10T08:36:19.095Z,5.7
2019-02-10T08:37:09.727Z,6.3
2019-02-10T08:37:59.507Z,6.3
2019-02-10T08:38:57.295Z,6.5
2019-02-10T08:39:39.335Z,6.6
2019-02-10T08:40:29.498Z,6.6
2019-02-10T08:41:20.010Z,6.6
2019-02-10T08:42:09.787Z,6.5
2019-02-10T08:43:00.125Z,6.6
2019-02-10T08:43:49.902Z,6.8
2019-02-10T08:44:40.239Z,7.1
2019-02-10T08:45:30.019Z,6.9
2019-02-10T08:46:20.362Z,6.8
2019-02-10T08:47:10.418Z,6.9
2019-02-10T08:48:00.512Z,6.6
2019-02-10T08:48:50.253Z,6.6
2019-02-10T08:49:40.537Z,6.5
2019-02-10T08:50:30.131Z,6.3
2019-02-10T08:51:20.704Z,6.8
2019-02-10T08:52:10.481Z,6.9
2019-02-10T08:53:00.549Z,6.9
2019-02-10T08:53:50.604Z,6.7
2019-02-10T08:54:40.937Z,6.7
2019-02-10T08:55:30.494Z,6.9
2019-02-10T08:56:21.053Z,7.1
2019-02-10T08:57:10.850Z,7.2
2019-02-10T08:58:00.902Z,7.3
2019-02-10T08:58:50.971Z,7.5
2019-02-10T08:59:41.306Z,7.6
2019-02-10T09:00:30.592Z,7.7
2019-02-10T09:01:21.156Z,7.9
2019-02-10T09:02:11.460Z,8.2
2019-02-10T09:03:01.521Z,8.4
2019-02-10T09:03:51.073Z,8.1
2019-02-10T09:04:41.648Z,8.1
2019-02-10T09:05:31.161Z,8.1
2019-02-10T09:06:21.201Z,7.8
2019-02-10T09:07:11.818Z,7.6
2019-02-10T09:08:01.907Z,7.8
2019-02-10T09:08:51.930Z,8.1
2019-02-10T09:09:41.724Z,8.5
2019-02-10T09:10:31.800Z,8.7
2019-02-10T09:11:21.577Z,8.6
2019-02-10T09:12:12.170Z,8.8
2019-02-10T09:13:02.233Z,8.9
2019-02-10T09:13:52.345Z,8.5
2019-02-10T09:14:41.792Z,8.7
2019-02-10T09:15:32.390Z,8.9
2019-02-10T09:16:21.700Z,9
2019-02-10T09:17:12.507Z,9
2019-02-10T09:18:02.307Z,9.3
2019-02-10T09:18:52.350Z,9.4
2019-02-10T09:19:42.403Z,9.1
2019-02-10T09:20:32.470Z,9.1
2019-02-10T09:21:22.255Z,9.2
2019-02-10T09:22:12.587Z,9.4
2019-02-10T09:23:02.917Z,9.6
2019-02-10T09:23:52.967Z,9.9
2019-02-10T09:24:42.484Z,10.1
2019-02-10T09:25:33.085Z,9.9
2019-02-10T09:26:22.863Z,9.9
2019-02-10T09:27:12.921Z,9.5
2019-02-10T09:28:02.979Z,9.3
2019-02-10T09:28:53.317Z,9.5
2019-02-10T09:29:42.877Z,9.9
2019-02-10T09:30:32.899Z,10.1
2019-02-10T09:31:23.502Z,10.4
2019-02-10T09:32:13.269Z,10.3
2019-02-10T09:33:03.330Z,10.8
2019-02-10T09:33:53.109Z,10.6
2019-02-10T09:34:43.177Z,10.8
2019-02-10T09:35:33.504Z,10.7
2019-02-10T09:36:23.573Z,10.6
2019-02-10T09:37:13.678Z,10.8
2019-02-10T09:38:03.406Z,11.1
2019-02-10T09:38:53.516Z,10.8
2019-02-10T09:39:43.518Z,10.3
2019-02-10T09:40:34.156Z,10.4
2019-02-10T09:41:24.193Z,10.7
2019-02-10T09:42:13.981Z,10.9
2019-02-10T09:43:04.038Z,11
2019-02-10T09:43:54.099Z,10.9
2019-02-10T09:44:43.886Z,11.2
2019-02-10T09:45:34.468Z,11.5
2019-02-10T09:46:24.598Z,11.6
2019-02-10T09:47:14.323Z,11.6
2019-02-10T09:48:04.383Z,11.8
2019-02-10T09:48:54.703Z,11.8
2019-02-10T09:49:44.225Z,11.4
2019-02-10T09:50:34.283Z,11.6
2019-02-10T09:51:24.883Z,11.8
2019-02-10T09:52:14.935Z,12
2019-02-10T09:53:04.788Z,12.2
2019-02-10T09:53:54.790Z,12.3
2019-02-10T09:54:45.112Z,12.3
2019-02-10T09:55:34.910Z,11.9
2019-02-10T09:56:24.963Z,11.7
2019-02-10T09:57:14.732Z,11.9
2019-02-10T09:58:05.062Z,11.6
2019-02-10T09:58:55.405Z,11.1
2019-02-10T09:59:45.189Z,10.4
2019-02-10T10:00:35.254Z,10.7
2019-02-10T10:01:25.320Z,11.1
2019-02-10T10:02:15.354Z,11.1
2019-02-10T10:03:05.699Z,11.3
2019-02-10T10:03:55.752Z,11.6
2019-02-10T10:04:45.820Z,12.1
2019-02-10T10:07:13.297Z,11.9
2019-02-10T10:08:03.354Z,12.6
2019-02-10T10:08:53.412Z,13
2019-02-10T10:09:43.457Z,12.9
2019-02-10T10:10:33.242Z,13.1
2019-02-10T10:11:23.569Z,12.9
2019-02-10T10:12:13.370Z,12.7
2019-02-10T10:13:03.729Z,11.9
2019-02-10T10:13:53.189Z,11.3
2019-02-10T10:14:43.266Z,11.5
2019-02-10T10:15:33.869Z,12.1
2019-02-10T10:16:23.934Z,12.5
2019-02-10T10:17:13.696Z,12.2
2019-02-10T10:18:03.499Z,12.1
2019-02-10T10:18:53.552Z,12.6
2019-02-10T10:19:43.866Z,12.9
2019-02-10T10:20:34.201Z,13.3
2019-02-10T10:21:23.754Z,13.4
2019-02-10T10:22:14.043Z,13.4
2019-02-10T10:23:03.876Z,13.4
2019-02-10T10:23:54.156Z,12.6
2019-02-10T10:24:52.816Z,11.6
2019-02-10T10:25:34.541Z,11.7
2019-02-10T10:26:24.608Z,11.6
2019-02-10T10:27:14.390Z,11.8
2019-02-10T10:28:04.768Z,12.1
2019-02-10T10:28:54.521Z,12.1
2019-02-10T10:29:44.841Z,12.3
2019-02-10T10:30:34.886Z,12.3
2019-02-10T10:31:24.955Z,12.3
2019-02-10T10:32:15.031Z,12.8
2019-02-10T10:33:04.788Z,12.8
2019-02-10T10:33:54.913Z,12.5
2019-02-10T10:34:44.913Z,12.4
2019-02-10T10:35:35.231Z,12.8
2019-02-10T10:36:25.296Z,12.4
2019-02-10T10:37:15.371Z,12.7
2019-02-10T10:38:05.138Z,12.7
2019-02-10T10:38:55.471Z,12.3
2019-02-10T10:39:45.256Z,12.1
2019-02-10T10:40:35.444Z,12.3
2019-02-10T10:41:25.673Z,12.6
2019-02-10T10:42:15.716Z,12.5
2019-02-10T10:43:05.772Z,12.3
2019-02-10T10:43:55.831Z,12.3
2019-02-10T10:44:45.883Z,12.1
2019-02-10T10:45:35.936Z,11.9
2019-02-10T10:46:25.996Z,12.1
2019-02-10T10:47:16.048Z,12.7
2019-02-10T10:48:05.836Z,12.9
2019-02-10T10:48:55.907Z,13.4
2019-02-10T10:49:45.966Z,13.8
2019-02-10T10:50:36.285Z,14
2019-02-10T10:51:26.340Z,14.2
2019-02-10T10:52:16.397Z,14.1
2019-02-10T10:53:05.967Z,13.9
2019-02-10T10:53:56.284Z,13.3
2019-02-10T10:54:46.585Z,13.3
2019-02-10T10:55:36.380Z,13.8
2019-02-10T10:56:26.708Z,13.9
2019-02-10T10:57:18.453Z,13.6
2019-02-10T10:58:06.800Z,13.4
2019-02-10T10:58:56.855Z,12.8
2019-02-10T10:59:46.907Z,12.9
2019-02-10T11:00:36.697Z,12.9
2019-02-10T11:01:28.519Z,12.8
2019-02-10T11:02:17.090Z,12.9
2019-02-10T11:03:07.152Z,12.7
2019-02-10T11:03:57.204Z,13.1
2019-02-10T11:04:47.257Z,13.4
2019-02-10T11:05:37.047Z,14
2019-02-10T11:06:27.387Z,14.3
2019-02-10T11:07:17.430Z,14.1
2019-02-10T11:08:06.952Z,14.6
2019-02-10T11:08:57.607Z,14.4
2019-02-10T11:09:47.621Z,14.3
2019-02-10T11:10:37.684Z,14.1
2019-02-10T11:11:27.727Z,13.5
2019-02-10T11:12:17.504Z,13.5
2019-02-10T11:13:07.860Z,13.5
2019-02-10T11:13:57.889Z,13.6
2019-02-10T11:14:47.971Z,13.5
2019-02-10T11:15:38.036Z,13.4
2019-02-10T11:16:28.136Z,13.4
2019-02-10T11:17:17.877Z,13.3
2019-02-10T11:18:07.921Z,12.9
2019-02-10T11:18:58.254Z,12.8
2019-02-10T11:19:48.312Z,13.1
2019-02-10T11:20:38.363Z,13.2
2019-02-10T11:21:27.908Z,12.7
2019-02-10T11:22:18.476Z,12.3
2019-02-10T11:23:08.272Z,13
2019-02-10T11:23:58.596Z,13.6
2019-02-10T11:24:48.644Z,14.1
2019-02-10T11:25:38.446Z,13.8
2019-02-10T11:26:28.763Z,13.4
2019-02-10T11:27:18.891Z,13.6
2019-02-10T11:28:08.598Z,13.1
2019-02-10T11:28:58.934Z,13.7
2019-02-10T11:29:48.716Z,13.5
2019-02-10T11:30:39.063Z,13.4
2019-02-10T11:31:29.133Z,13.3
2019-02-10T11:32:19.186Z,13.3
2019-02-10T11:33:08.960Z,13.4
2019-02-10T11:33:59.285Z,13.3
2019-02-10T11:34:48.525Z,13.4
2019-02-10T11:35:39.443Z,13.5
2019-02-10T11:36:29.459Z,12.9
2019-02-10T11:37:27.688Z,12.4
2019-02-10T11:38:09.593Z,13.1
2019-02-10T11:38:59.645Z,13.4
2019-02-10T11:39:49.697Z,13.2
2019-02-10T11:40:39.191Z,13.1
2019-02-10T11:41:29.525Z,12.5
2019-02-10T11:42:19.875Z,12.4
2019-02-10T11:43:09.915Z,12.2
2019-02-10T11:43:59.430Z,12.1
2019-02-10T11:44:49.757Z,12.3
2019-02-10T11:45:40.090Z,12.4
2019-02-10T11:46:29.857Z,12.9
2019-02-10T11:47:19.942Z,13
2019-02-10T11:48:10.854Z,12.6
2019-02-10T11:49:00.329Z,13.1
2019-02-10T11:49:50.392Z,13.3
2019-02-10T11:50:40.504Z,13.4
2019-02-10T11:51:30.231Z,13.8
2019-02-10T11:52:20.547Z,13.4
2019-02-10T11:53:10.601Z,12.8
2019-02-10T11:54:00.661Z,13.1
2019-02-10T11:54:50.757Z,13.4
2019-02-10T11:55:40.799Z,13.2
2019-02-10T11:56:30.849Z,13.1
2019-02-10T11:57:20.636Z,12.9
2019-02-10T11:58:10.956Z,12.9
2019-02-10T11:59:00.746Z,13.1
2019-02-10T11:59:51.089Z,13.4
2019-02-10T12:00:41.183Z,13.3
2019-02-10T12:01:31.271Z,12.7
2019-02-10T12:02:20.688Z,12.8
2019-02-10T12:03:11.043Z,12.9
2019-02-10T12:04:40.208Z,13.7
2019-02-10T12:07:12.678Z,12.5
2019-02-10T12:08:02.678Z,12.3
2019-02-10T12:08:53.018Z,12.4
2019-02-10T12:10:33.395Z,12.8
2019-02-10T12:12:13.023Z,12.4
2019-02-10T12:13:03.590Z,12.4
2019-02-10T12:13:53.646Z,12.3
2019-02-10T12:14:43.457Z,12.1
2019-02-10T12:15:33.198Z,12.1
2019-02-10T12:16:22.975Z,12.1
2019-02-10T12:17:13.793Z,12.1
2019-02-10T12:18:03.657Z,12.9
2019-02-10T12:18:54.027Z,13.3
2019-02-10T12:19:43.763Z,13.5
2019-02-10T12:20:34.162Z,13.1
2019-02-10T12:21:23.596Z,13.6
2019-02-10T12:22:13.927Z,13.3
2019-02-10T12:23:03.992Z,13.1
2019-02-10T12:23:54.077Z,13.3
2019-02-10T12:24:43.833Z,13.6
2019-02-10T12:25:34.473Z,13
2019-02-10T12:26:24.519Z,13.4
2019-02-10T12:27:14.554Z,13.8
2019-02-10T12:28:04.087Z,13.6
2019-02-10T12:28:54.131Z,13.6
2019-02-10T12:29:44.180Z,13.6
2019-02-10T12:30:34.514Z,13.3
2019-02-10T12:31:24.859Z,13.2
2019-02-10T12:32:14.629Z,13.1
2019-02-10T12:33:04.689Z,12.8
2019-02-10T12:33:54.839Z,12.9
2019-02-10T12:34:44.814Z,12.9
2019-02-10T12:35:34.862Z,13.1
2019-02-10T12:36:25.444Z,13
2019-02-10T12:37:15.306Z,12.9
2019-02-10T12:38:05.345Z,13
2019-02-10T12:38:55.091Z,12.6
2019-02-10T12:39:45.176Z,12.6
2019-02-10T12:40:35.520Z,12.9
2019-02-10T12:41:25.979Z,13.2
2019-02-10T12:42:15.048Z,13.1
2019-02-10T12:43:05.682Z,13.2
2019-02-10T12:43:55.188Z,13
2019-02-10T12:44:45.786Z,13.4
2019-02-10T12:45:35.571Z,12.9
2019-02-10T12:46:25.632Z,13.1
2019-02-10T12:47:15.414Z,13.7
2019-02-10T12:48:12.245Z,13.8
2019-02-10T12:48:56.088Z,13.6
2019-02-10T12:49:46.780Z,13.4
2019-02-10T12:50:35.928Z,13
2019-02-10T12:51:25.975Z,12.9
2019-02-10T12:52:16.351Z,12.9
2019-02-10T12:53:06.365Z,12.8
2019-02-10T12:53:56.160Z,12.6
2019-02-10T12:54:45.917Z,12.5
2019-02-10T12:55:36.268Z,12.3
2019-02-10T12:56:26.598Z,12.4
2019-02-10T12:57:15.860Z,12.8
2019-02-10T12:58:06.722Z,12.8
2019-02-10T12:58:56.216Z,12.6
2019-02-10T12:59:46.822Z,12.8
2019-02-10T13:00:38.455Z,12.9
2019-02-10T13:01:26.108Z,12.5
2019-02-10T13:02:16.448Z,12.6
2019-02-10T13:03:07.074Z,12.6
2019-02-10T13:03:56.897Z,13.1
2019-02-10T13:04:47.192Z,13.4
2019-02-10T13:05:36.985Z,13.5
2019-02-10T13:06:26.748Z,13.3
2019-02-10T13:07:16.529Z,13.4
2019-02-10T13:08:07.425Z,13.4
2019-02-10T13:08:57.470Z,13.3
2019-02-10T13:09:47.538Z,13.6
2019-02-10T13:10:37.314Z,13.7
2019-02-10T13:11:27.649Z,13.9
2019-02-10T13:12:17.439Z,13.8
2019-02-10T13:13:07.228Z,13.8
2019-02-10T13:13:57.537Z,13.6
2019-02-10T13:14:47.047Z,13.8
2019-02-10T13:15:37.681Z,13.7
2019-02-10T13:16:27.999Z,13.4
2019-02-10T13:17:18.064Z,13.7
2019-02-10T13:18:08.126Z,13.8
2019-02-10T13:18:58.164Z,13.7
2019-02-10T13:19:47.668Z,14.2
2019-02-10T13:20:38.293Z,14.6
2019-02-10T13:21:27.790Z,14.7
2019-02-10T13:22:18.177Z,14.9
2019-02-10T13:23:07.641Z,15.1
2019-02-10T13:23:58.243Z,15.1
2019-02-10T13:24:48.305Z,14.6
2019-02-10T13:25:38.647Z,14.4
2019-02-10T13:26:27.725Z,14.7
2019-02-10T13:27:18.213Z,14.9
2019-02-10T13:28:07.986Z,15.1
2019-02-10T13:28:58.588Z,15.4
2019-02-10T13:29:48.656Z,15.6
2019-02-10T13:30:38.995Z,15.6
2019-02-10T13:31:28.523Z,15.5
2019-02-10T13:32:19.111Z,15.7
2019-02-10T13:33:09.023Z,15.6
2019-02-10T13:33:59.218Z,15.3
2019-02-10T13:34:49.490Z,15.3
2019-02-10T13:35:39.338Z,15.4
2019-02-10T13:36:29.408Z,15.4
2019-02-10T13:37:19.198Z,15.5
2019-02-10T13:38:09.238Z,15.6
2019-02-10T13:38:59.295Z,15.4
2019-02-10T13:39:49.370Z,15.1
2019-02-10T13:40:39.712Z,15.1
2019-02-10T13:41:29.743Z,15.3
2019-02-10T13:42:19.530Z,15.3
2019-02-10T13:43:09.590Z,14.8
2019-02-10T13:43:59.640Z,14.6
2019-02-10T13:44:49.707Z,14.3
2019-02-10T13:45:39.554Z,14.3
2019-02-10T13:46:30.095Z,14.3
2019-02-10T13:47:20.157Z,14.3
2019-02-10T13:48:10.217Z,14.4
2019-02-10T13:48:59.437Z,13.9
2019-02-10T13:49:50.327Z,13.8
2019-02-10T13:50:40.112Z,13.6
2019-02-10T13:51:30.173Z,13.6
2019-02-10T13:52:20.237Z,14
2019-02-10T13:53:11.775Z,14.3
2019-02-10T13:54:00.622Z,14.6
2019-02-10T13:54:50.689Z,14.8
2019-02-10T13:55:40.464Z,14.7
2019-02-10T13:56:30.801Z,14.7
2019-02-10T13:57:20.107Z,14.5
2019-02-10T13:58:10.367Z,14.6
2019-02-10T13:59:00.984Z,14.6
2019-02-10T13:59:50.766Z,14.4
2019-02-10T14:00:41.086Z,14.2
2019-02-10T14:01:31.159Z,14.4
2019-02-10T14:02:20.927Z,14.3
2019-02-10T14:03:10.503Z,14.3
2019-02-10T14:04:01.062Z,13.9
2019-02-10T14:04:51.406Z,13.8
2019-02-10T14:05:41.449Z,14
2019-02-10T14:08:12.798Z,14.6
2019-02-10T14:09:02.833Z,14.4
2019-02-10T14:09:53.191Z,14.6
2019-02-10T14:10:43.226Z,14.6
2019-02-10T14:11:33.310Z,14.8
2019-02-10T14:12:23.071Z,14.7
2019-02-10T14:13:13.121Z,14.6
2019-02-10T14:14:03.468Z,14.5
2019-02-10T14:14:53.263Z,14.2
2019-02-10T14:15:43.580Z,14
2019-02-10T14:16:33.428Z,13.7
2019-02-10T14:17:23.143Z,13.4
2019-02-10T14:18:13.550Z,13.4
2019-02-10T14:19:03.265Z,13.6
2019-02-10T14:19:53.875Z,14.1
2019-02-10T14:20:43.927Z,14.3
2019-02-10T14:21:33.720Z,14.5
2019-02-10T14:22:23.270Z,14.4
2019-02-10T14:23:13.833Z,14.3
2019-02-10T14:24:04.169Z,14.3
2019-02-10T14:24:53.947Z,14.2
2019-02-10T14:25:43.735Z,14.2
2019-02-10T14:26:34.359Z,14.2
2019-02-10T14:27:24.122Z,14.1
2019-02-10T14:28:14.500Z,13.9
2019-02-10T14:29:06.109Z,13.9
2019-02-10T14:29:54.289Z,13.9
2019-02-10T14:30:44.644Z,14
2019-02-10T14:31:34.417Z,14.1
2019-02-10T14:32:24.249Z,14.3
2019-02-10T14:33:14.533Z,14.4
2019-02-10T14:34:06.385Z,14.5